Time;durP1;ratioP1;P1;durP2;ratioP2;P2;SDS_P1;SDS_P2;PMS_P1;PMS_P2;Temp;Humidity;BMP_temperature;BMP_pressure;BME280_temperature;BME280_humidity;BME280_pressure;Samples;Min_cycle;Max_cycle;Signal;HPM_P1;HPM_P2
2023/09/22 00:02:02;;;;;;;1.27;0.47;;;18.20;99.90;;;;;;5024385;28;20607;-64
2023/09/22 00:04:30;;;;;;;1.88;0.63;;;18.30;99.90;;;;;;5022835;28;20646;-63
2023/09/22 00:06:57;;;;;;;0.75;0.40;;;18.30;99.90;;;;;;5024699;28;20242;-64
2023/09/22 00:09:24;;;;;;;1.75;0.47;;;18.30;99.90;;;;;;5026563;28;20221;-64
2023/09/22 00:11:52;;;;;;;0.70;0.38;;;18.30;99.90;;;;;;5025468;28;20234;-63
2023/09/22 00:14:18;;;;;;;1.35;0.55;;;18.30;99.90;;;;;;5022809;28;20207;-63
2023/09/22 00:16:45;;;;;;;0.57;0.20;;;18.40;99.90;;;;;;5023127;28;20214;-64
2023/09/22 00:19:12;;;;;;;0.70;0.40;;;18.40;99.90;;;;;;5026048;28;20198;-64
2023/09/22 00:21:39;;;;;;;0.98;0.47;;;18.40;99.90;;;;;;5026076;28;20222;-63
2023/09/22 00:24:06;;;;;;;0.70;0.40;;;18.30;99.90;;;;;;5023986;28;20672;-64
2023/09/22 00:26:33;;;;;;;2.03;0.60;;;18.20;99.90;;;;;;5022741;28;20206;-64
2023/09/22 00:29:01;;;;;;;1.20;0.63;;;18.10;99.90;;;;;;5024362;28;20211;-64
2023/09/22 00:31:28;;;;;;;1.10;0.60;;;18.00;99.90;;;;;;5026128;28;20222;-64
2023/09/22 00:33:55;;;;;;;1.35;0.70;;;17.90;99.90;;;;;;5025229;28;20206;-64
2023/09/22 00:36:22;;;;;;;1.52;0.65;;;17.80;99.90;;;;;;5023030;28;20210;-64
2023/09/22 00:38:49;;;;;;;1.00;0.50;;;17.80;99.90;;;;;;5022958;28;20214;-63
2023/09/22 00:41:15;;;;;;;1.63;0.50;;;17.80;99.90;;;;;;5026223;28;20214;-64
2023/09/22 00:43:42;;;;;;;0.70;0.57;;;17.80;99.90;;;;;;5026215;28;20606;-64
2023/09/22 00:46:12;;;;;;;0.35;0.35;;;17.70;99.90;;;;;;5022722;28;20709;-64
2023/09/22 00:48:41;;;;;;;0.98;0.47;;;17.70;99.90;;;;;;5022368;28;20303;-64
2023/09/22 00:51:08;;;;;;;1.23;0.52;;;17.70;99.90;;;;;;5024746;28;20302;-64
2023/09/22 00:53:37;;;;;;;1.10;0.50;;;17.70;99.90;;;;;;5025241;28;20280;-63
2023/09/22 00:56:05;;;;;;;1.40;0.60;;;17.70;99.90;;;;;;5023064;28;20691;-64
2023/09/22 00:58:32;;;;;;;1.67;0.88;;;17.70;99.90;;;;;;5022131;28;20214;-64
2023/09/22 01:00:58;;;;;;;1.17;0.50;;;17.70;99.90;;;;;;5023068;28;20688;-64
2023/09/22 01:03:26;;;;;;;0.50;0.40;;;17.60;99.90;;;;;;5025279;28;20226;-64
2023/09/22 01:05:53;;;;;;;0.85;0.50;;;17.60;99.90;;;;;;5024385;28;20206;-64
2023/09/22 01:08:20;;;;;;;0.90;0.50;;;17.60;99.90;;;;;;5021900;28;20383;-64
2023/09/22 01:10:47;;;;;;;1.15;0.50;;;17.60;99.90;;;;;;5022176;28;20241;-64
2023/09/22 01:13:14;;;;;;;1.25;0.70;;;17.50;99.90;;;;;;5025293;28;20574;-63
2023/09/22 01:15:42;;;;;;;2.83;0.65;;;17.50;99.90;;;;;;5025079;28;20214;-64
2023/09/22 01:18:12;;;;;;;2.92;0.40;;;17.50;99.90;;;;;;5022414;28;20207;-64
2023/09/22 01:20:43;;;;;;;1.23;0.60;;;17.40;99.90;;;;;;5021689;28;20287;-63
2023/09/22 01:23:13;;;;;;;0.68;0.63;;;17.30;99.90;;;;;;5024483;28;20222;-64
2023/09/22 01:25:40;;;;;;;1.55;0.60;;;17.20;99.90;;;;;;5025350;28;20610;-65
2023/09/22 01:28:07;;;;;;;1.02;0.82;;;17.20;99.90;;;;;;5023765;28;20214;-64
2023/09/22 01:30:34;;;;;;;1.17;0.75;;;17.20;99.90;;;;;;5021961;28;20229;-64
2023/09/22 01:33:03;;;;;;;1.13;0.75;;;17.20;99.90;;;;;;5022852;28;20222;-64
2023/09/22 01:35:32;;;;;;;0.80;0.50;;;17.20;99.90;;;;;;5025081;28;20202;-64
2023/09/22 01:38:09;;;;;;;0.98;0.57;;;17.20;99.90;;;;;;5024829;28;20206;-65
2023/09/22 01:40:37;;;;;;;0.85;0.70;;;17.10;99.90;;;;;;5021718;28;20218;-65
2023/09/22 01:43:04;;;;;;;0.60;0.55;;;17.10;99.90;;;;;;5022959;28;20223;-64
2023/09/22 01:45:31;;;;;;;1.58;0.70;;;17.10;99.90;;;;;;5024372;28;20304;-64
2023/09/22 01:47:57;;;;;;;1.15;0.80;;;17.00;99.90;;;;;;5023347;28;20617;-65
2023/09/22 01:50:25;;;;;;;1.45;0.50;;;17.10;99.90;;;;;;5021316;28;20634;-64
2023/09/22 01:52:52;;;;;;;0.82;0.55;;;17.10;99.90;;;;;;5063493;22;20320;-57
2023/09/22 01:55:19;;;;;;;1.25;0.40;;;17.10;99.90;;;;;;5051947;28;20210;-57
2023/09/22 01:57:49;;;;;;;0.90;0.50;;;17.10;99.90;;;;;;5052110;28;20290;-58
2023/09/22 02:00:18;;;;;;;1.13;0.65;;;17.10;99.90;;;;;;5051935;28;20218;-58
2023/09/22 02:02:45;;;;;;;1.10;0.68;;;17.20;99.90;;;;;;5040689;28;20327;-58
2023/09/22 02:05:14;;;;;;;1.35;0.80;;;17.20;99.90;;;;;;5031750;28;20627;-58
2023/09/22 02:07:41;;;;;;;1.83;0.68;;;17.20;99.90;;;;;;5031794;28;20232;-56
2023/09/22 02:10:10;;;;;;;1.15;0.70;;;17.10;99.90;;;;;;5031716;28;20214;-58
2023/09/22 02:12:36;;;;;;;1.13;1.00;;;17.10;99.90;;;;;;5031513;28;20295;-58
2023/09/22 02:15:07;;;;;;;0.73;0.65;;;17.00;99.90;;;;;;5031458;28;20589;-58
2023/09/22 02:17:34;;;;;;;1.10;0.70;;;17.00;99.90;;;;;;5032000;28;20249;-57
2023/09/22 02:20:03;;;;;;;0.82;0.50;;;16.90;99.90;;;;;;5030990;28;20206;-57
2023/09/22 02:22:32;;;;;;;2.65;0.70;;;16.90;99.90;;;;;;5031463;28;20797;-58
2023/09/22 02:24:59;;;;;;;0.90;0.60;;;16.80;99.90;;;;;;5031145;28;20206;-57
2023/09/22 02:27:26;;;;;;;1.13;0.77;;;16.90;99.90;;;;;;5031429;28;20236;-57
2023/09/22 02:29:53;;;;;;;3.05;0.80;;;16.80;99.90;;;;;;5031162;28;20257;-58
2023/09/22 02:32:21;;;;;;;4.45;2.95;;;16.80;99.90;;;;;;5031179;28;20315;-58
2023/09/22 02:34:48;;;;;;;0.98;0.75;;;16.80;99.90;;;;;;5031010;28;20218;-58
2023/09/22 02:37:16;;;;;;;2.92;1.05;;;16.80;99.90;;;;;;5031695;28;20206;-57
2023/09/22 02:39:44;;;;;;;1.42;1.05;;;16.80;99.90;;;;;;5031044;28;20214;-57
2023/09/22 02:42:11;;;;;;;3.08;0.80;;;16.90;99.90;;;;;;5030947;28;20656;-57
2023/09/22 02:44:38;;;;;;;1.23;0.80;;;16.90;99.90;;;;;;5030690;28;20314;-57
2023/09/22 02:47:05;;;;;;;2.53;0.88;;;16.80;99.90;;;;;;5031285;28;20202;-57
2023/09/22 02:49:33;;;;;;;1.60;1.02;;;16.80;99.90;;;;;;5031103;28;20202;-56
2023/09/22 02:52:00;;;;;;;1.35;0.60;;;16.80;99.90;;;;;;5030732;28;20226;-56
2023/09/22 02:54:26;;;;;;;1.60;1.00;;;16.70;99.90;;;;;;5030723;28;20248;-58
2023/09/22 02:56:53;;;;;;;1.63;1.00;;;16.70;99.90;;;;;;5030946;28;20668;-57
2023/09/22 02:59:20;;;;;;;1.27;0.98;;;16.60;99.90;;;;;;5030626;28;20594;-56
2023/09/22 03:01:46;;;;;;;3.25;1.00;;;16.60;99.90;;;;;;5030905;28;20318;-57
2023/09/22 03:04:13;;;;;;;1.75;0.98;;;16.60;99.90;;;;;;5030592;28;20229;-57
2023/09/22 03:06:42;;;;;;;3.22;0.90;;;16.60;99.90;;;;;;5030803;28;20202;-57
2023/09/22 03:09:09;;;;;;;2.83;1.05;;;16.70;99.90;;;;;;5030747;28;20206;-56
2023/09/22 03:11:36;;;;;;;1.45;0.75;;;16.70;99.90;;;;;;5030479;28;20202;-56
2023/09/22 03:14:04;;;;;;;4.70;3.55;;;16.70;99.90;;;;;;5030575;28;20214;-56
2023/09/22 03:16:30;;;;;;;1.80;1.23;;;16.70;99.90;;;;;;5030599;28;20206;-56
2023/09/22 03:18:57;;;;;;;1.52;1.33;;;16.70;99.90;;;;;;5030528;28;20225;-56
2023/09/22 03:21:25;;;;;;;4.38;2.47;;;16.70;99.90;;;;;;5030456;28;20321;-56
2023/09/22 03:23:53;;;;;;;3.92;1.73;;;16.70;99.90;;;;;;5030440;28;20202;-57
2023/09/22 03:26:22;;;;;;;1.08;0.77;;;16.70;99.90;;;;;;5022612;28;20202;-57
2023/09/22 03:28:49;;;;;;;2.10;1.25;;;16.70;99.90;;;;;;5030552;28;20217;-57
2023/09/22 03:31:16;;;;;;;4.50;1.13;;;16.70;99.90;;;;;;5031175;28;20228;-57
2023/09/22 03:33:46;;;;;;;3.97;1.10;;;16.80;99.90;;;;;;5034452;28;20254;-57
2023/09/22 03:36:13;;;;;;;1.80;1.17;;;16.70;99.90;;;;;;5034174;28;20683;-56
2023/09/22 03:38:42;;;;;;;3.40;1.48;;;16.60;99.90;;;;;;5035056;28;20210;-56
2023/09/22 03:41:10;;;;;;;1.77;1.40;;;16.60;99.90;;;;;;5034694;28;20213;-56
2023/09/22 03:43:36;;;;;;;3.03;1.60;;;16.60;99.90;;;;;;5034431;28;20214;-56
2023/09/22 03:46:03;;;;;;;1.98;1.25;;;16.50;99.90;;;;;;5034240;28;20217;-56
2023/09/22 03:48:30;;;;;;;1.73;0.93;;;16.40;99.90;;;;;;5034458;28;20237;-57
2023/09/22 03:50:57;;;;;;;2.90;1.23;;;16.40;99.90;;;;;;5034170;28;20252;-57
2023/09/22 03:53:24;;;;;;;1.77;1.05;;;16.40;99.90;;;;;;5034291;28;20355;-57
2023/09/22 03:55:51;;;;;;;1.30;0.80;;;16.50;99.90;;;;;;5034075;28;20581;-57
2023/09/22 03:58:20;;;;;;;2.20;0.90;;;16.40;99.90;;;;;;5034145;28;20198;-57
2023/09/22 04:00:46;;;;;;;1.92;1.00;;;16.40;99.90;;;;;;5034239;28;20568;-55
2023/09/22 04:03:13;;;;;;;1.85;0.95;;;16.40;99.90;;;;;;5033716;28;20229;-55
2023/09/22 04:05:40;;;;;;;2.47;1.10;;;16.50;99.90;;;;;;5034086;28;20210;-58
2023/09/22 04:08:07;;;;;;;1.30;0.80;;;16.40;99.90;;;;;;5034165;28;20214;-58
2023/09/22 04:10:34;;;;;;;1.17;0.90;;;16.40;99.90;;;;;;5034174;28;20206;-57
2023/09/22 04:13:01;;;;;;;2.00;1.35;;;16.50;99.90;;;;;;5033959;28;20222;-57
2023/09/22 04:15:29;;;;;;;3.58;1.27;;;16.50;99.90;;;;;;5033976;28;20206;-56
2023/09/22 04:17:55;;;;;;;1.48;0.90;;;16.60;99.90;;;;;;5034018;28;20290;-56
2023/09/22 04:20:28;;;;;;;1.50;1.00;;;16.60;99.90;;;;;;5034168;28;20210;-56
2023/09/22 04:22:56;;;;;;;2.08;1.02;;;16.60;99.90;;;;;;5034165;28;20249;-56
2023/09/22 04:25:29;;;;;;;3.28;1.10;;;16.60;99.90;;;;;;5033960;28;20299;-56
2023/09/22 04:27:57;;;;;;;1.30;0.70;;;16.70;99.90;;;;;;5034210;28;20260;-57
2023/09/22 04:30:24;;;;;;;1.25;0.70;;;16.70;99.90;;;;;;5033933;28;20212;-56
2023/09/22 04:32:53;;;;;;;2.50;0.80;;;16.70;99.90;;;;;;5034046;28;20265;-55
2023/09/22 04:35:21;;;;;;;1.90;0.90;;;16.70;99.90;;;;;;5033675;28;20650;-55
2023/09/22 04:37:48;;;;;;;1.42;1.00;;;16.80;99.90;;;;;;5034145;28;20676;-55
2023/09/22 04:40:24;;;;;;;2.00;0.80;;;16.80;99.90;;;;;;5033993;28;20268;-55
2023/09/22 04:42:51;;;;;;;3.13;1.10;;;16.70;99.90;;;;;;5033253;28;20291;-58
2023/09/22 04:45:18;;;;;;;2.33;0.70;;;16.70;99.90;;;;;;5033377;28;20217;-55
2023/09/22 04:47:46;;;;;;;3.55;1.15;;;16.70;99.90;;;;;;5033303;28;20675;-55
2023/09/22 04:50:16;;;;;;;6.53;0.93;;;16.80;99.90;;;;;;5033688;28;20296;-58
2023/09/22 04:52:43;;;;;;;1.73;1.30;;;16.80;99.90;;;;;;5033616;28;20260;-58
2023/09/22 04:55:10;;;;;;;1.30;1.05;;;16.80;99.90;;;;;;5033570;28;20214;-58
2023/09/22 04:57:37;;;;;;;2.92;0.90;;;16.80;99.90;;;;;;5033647;28;20214;-58
2023/09/22 05:00:08;;;;;;;2.47;1.00;;;16.70;99.90;;;;;;5033396;28;20210;-58
2023/09/22 05:02:35;;;;;;;3.50;1.30;;;16.80;99.90;;;;;;5033708;28;20236;-56
2023/09/22 05:05:02;;;;;;;3.28;0.98;;;16.80;99.90;;;;;;5033267;28;20202;-54
2023/09/22 05:07:31;;;;;;;1.25;0.65;;;16.70;99.90;;;;;;5033424;28;20252;-56
2023/09/22 05:09:59;;;;;;;3.58;1.13;;;16.50;99.90;;;;;;5033048;28;20207;-55
2023/09/22 05:12:26;;;;;;;2.10;0.75;;;16.50;99.90;;;;;;5033131;28;20222;-55
2023/09/22 05:14:52;;;;;;;2.72;1.20;;;16.50;99.90;;;;;;5032556;28;20229;-56
2023/09/22 05:17:19;;;;;;;2.15;0.90;;;16.40;99.90;;;;;;5033558;28;20213;-56
2023/09/22 05:19:46;;;;;;;2.97;1.20;;;16.50;99.90;;;;;;5032996;28;20213;-56
2023/09/22 05:22:13;;;;;;;1.77;0.70;;;16.40;99.90;;;;;;5032760;28;20242;-56
2023/09/22 05:24:41;;;;;;;1.60;0.70;;;16.40;99.90;;;;;;5032923;28;20234;-56
2023/09/22 05:27:09;;;;;;;1.48;1.02;;;16.30;99.90;;;;;;5032803;28;20206;-57
2023/09/22 05:29:36;;;;;;;1.67;0.90;;;16.20;99.90;;;;;;5033099;28;20217;-56
2023/09/22 05:32:02;;;;;;;1.90;1.00;;;16.00;99.90;;;;;;5032773;28;20230;-56
2023/09/22 05:34:29;;;;;;;1.75;1.10;;;15.90;99.90;;;;;;5032539;28;20234;-56
2023/09/22 05:36:56;;;;;;;2.10;1.02;;;16.00;99.90;;;;;;5032475;28;20206;-56
2023/09/22 05:39:22;;;;;;;2.13;0.97;;;16.00;99.90;;;;;;5032631;28;20560;-56
2023/09/22 05:41:50;;;;;;;2.65;0.88;;;16.00;99.90;;;;;;5032573;28;20255;-56
2023/09/22 05:44:17;;;;;;;1.33;0.97;;;16.10;99.90;;;;;;5032312;28;20210;-56
2023/09/22 05:46:44;;;;;;;2.93;1.00;;;16.00;99.90;;;;;;5032392;28;20208;-56
2023/09/22 05:49:14;;;;;;;3.45;1.40;;;16.10;99.90;;;;;;5032335;28;20480;-57
2023/09/22 05:51:41;;;;;;;2.55;1.05;;;16.20;99.90;;;;;;5032309;28;20214;-57
2023/09/22 05:54:08;;;;;;;1.58;0.82;;;16.40;99.90;;;;;;5032081;28;20313;-56
2023/09/22 05:56:35;;;;;;;3.83;1.02;;;16.50;99.90;;;;;;5031762;28;20229;-55
2023/09/22 05:59:04;;;;;;;2.25;1.00;;;16.50;99.90;;;;;;5032768;28;20648;-55
2023/09/22 06:01:35;;;;;;;1.63;0.85;;;16.50;99.90;;;;;;5032214;28;20213;-55
2023/09/22 06:04:04;;;;;;;1.83;0.80;;;16.60;99.90;;;;;;5032009;28;20672;-55
2023/09/22 06:06:31;;;;;;;0.93;0.63;;;16.60;99.90;;;;;;5032017;28;20741;-55
2023/09/22 06:08:58;;;;;;;1.30;0.90;;;16.70;99.90;;;;;;5032078;28;20668;-55
2023/09/22 06:11:26;;;;;;;0.95;0.82;;;16.60;99.90;;;;;;5031818;28;20297;-55
2023/09/22 06:13:53;;;;;;;1.25;0.80;;;16.80;99.90;;;;;;5031796;28;20714;-55
2023/09/22 06:16:24;;;;;;;1.85;0.75;;;16.80;99.90;;;;;;5031359;28;20234;-55
2023/09/22 06:18:50;;;;;;;0.77;0.75;;;16.90;99.90;;;;;;5031397;28;20313;-55
2023/09/22 06:21:17;;;;;;;4.45;0.85;;;17.00;99.90;;;;;;5031698;28;20214;-55
2023/09/22 06:23:43;;;;;;;2.20;0.98;;;17.00;99.90;;;;;;5031560;28;20230;-55
2023/09/22 06:26:10;;;;;;;1.90;1.10;;;17.10;99.90;;;;;;5031420;28;20206;-55
2023/09/22 06:28:38;;;;;;;2.20;1.02;;;17.10;99.90;;;;;;5031754;28;20206;-56
2023/09/22 06:31:05;;;;;;;3.00;1.00;;;17.10;99.90;;;;;;5031585;28;20213;-60
2023/09/22 06:33:34;;;;;;;3.15;0.77;;;17.20;99.90;;;;;;5031636;28;20234;-61
2023/09/22 06:36:03;;;;;;;1.73;0.80;;;17.30;99.90;;;;;;5031670;28;20210;-59
2023/09/22 06:38:32;;;;;;;2.30;1.63;;;17.30;99.90;;;;;;5031774;28;20213;-59
2023/09/22 06:41:00;;;;;;;2.35;0.90;;;17.30;99.90;;;;;;5031666;28;20233;-58
2023/09/22 06:43:29;;;;;;;1.95;1.02;;;17.40;99.90;;;;;;5031314;28;20291;-58
2023/09/22 06:45:58;;;;;;;1.65;0.93;;;17.30;99.90;;;;;;5031123;28;20591;-57
2023/09/22 06:48:26;;;;;;;3.15;1.15;;;17.30;99.90;;;;;;5031461;28;20221;-58
2023/09/22 06:50:57;;;;;;;1.90;0.98;;;17.40;99.90;;;;;;5033011;28;20437;-59
2023/09/22 06:53:26;;;;;;;2.50;0.70;;;17.40;99.90;;;;;;5031589;28;20708;-61
2023/09/22 06:56:02;;;;;;;2.50;1.25;;;17.50;99.90;;;;;;5031663;28;20241;-57
2023/09/22 06:58:29;;;;;;;1.88;1.10;;;17.30;99.90;;;;;;5031892;28;20687;-57
2023/09/22 07:00:56;;;;;;;2.95;1.00;;;17.30;99.90;;;;;;5031701;28;20213;-57
2023/09/22 07:03:23;;;;;;;3.60;1.00;;;17.40;99.90;;;;;;5031350;28;20260;-58
2023/09/22 07:05:49;;;;;;;1.85;1.15;;;17.50;99.90;;;;;;5031261;28;20228;-57
2023/09/22 07:08:17;;;;;;;4.03;1.50;;;17.70;99.90;;;;;;5031689;28;20206;-58
2023/09/22 07:10:44;;;;;;;1.88;1.20;;;17.80;99.90;;;;;;5031313;28;20220;-58
2023/09/22 07:13:11;;;;;;;1.40;1.00;;;17.80;99.90;;;;;;5031787;28;20269;-58
2023/09/22 07:15:38;;;;;;;1.83;1.17;;;17.80;99.90;;;;;;5031376;28;20234;-57
2023/09/22 07:18:05;;;;;;;1.58;1.10;;;17.80;99.90;;;;;;5031247;28;20629;-58
2023/09/22 07:20:32;;;;;;;2.75;1.65;;;17.80;99.90;;;;;;5031829;28;20651;-57
2023/09/22 07:22:59;;;;;;;3.00;1.00;;;17.90;99.90;;;;;;5030871;28;20222;-59
2023/09/22 07:25:27;;;;;;;2.25;0.70;;;18.00;99.90;;;;;;5031120;28;20208;-58
2023/09/22 07:27:54;;;;;;;5.13;1.00;;;18.00;99.90;;;;;;5031050;28;20245;-57
2023/09/22 07:30:21;;;;;;;1.20;0.88;;;18.00;99.90;;;;;;5031151;28;20247;-57
2023/09/22 07:32:48;;;;;;;3.25;1.00;;;17.90;99.90;;;;;;5031053;28;20233;-57
2023/09/22 07:35:15;;;;;;;0.90;0.70;;;17.80;99.90;;;;;;5030761;28;20222;-57
2023/09/22 07:37:42;;;;;;;1.67;0.70;;;17.80;99.90;;;;;;5030694;28;20578;-58
2023/09/22 07:40:10;;;;;;;2.83;0.88;;;17.80;99.90;;;;;;5031100;28;20222;-57
2023/09/22 07:42:41;;;;;;;2.13;1.10;;;17.80;99.90;;;;;;5030667;28;20226;-57
2023/09/22 07:45:09;;;;;;;2.60;0.95;;;17.60;99.90;;;;;;5030862;28;20209;-57
2023/09/22 07:47:37;;;;;;;2.20;1.40;;;17.60;99.90;;;;;;5030891;28;20209;-57
2023/09/22 07:50:04;;;;;;;1.30;0.90;;;17.70;99.90;;;;;;5030764;28;20664;-58
2023/09/22 07:52:31;;;;;;;1.80;1.10;;;17.80;99.90;;;;;;5059461;22;20239;-54
2023/09/22 07:54:58;;;;;;;4.05;1.00;;;17.90;99.90;;;;;;5050498;28;20665;-55
2023/09/22 07:57:30;;;;;;;1.52;0.90;;;18.00;99.90;;;;;;5050698;28;20645;-54
2023/09/22 07:59:58;;;;;;;2.05;1.17;;;18.00;99.90;;;;;;5050514;28;20205;-54
2023/09/22 08:02:25;;;;;;;1.10;0.80;;;18.10;99.90;;;;;;5044649;28;20222;-54
2023/09/22 08:04:52;;;;;;;1.58;0.82;;;18.20;99.90;;;;;;5030369;28;20695;-57
2023/09/22 08:07:19;;;;;;;1.30;1.00;;;18.20;99.90;;;;;;5030526;28;20211;-53
2023/09/22 08:09:46;;;;;;;1.60;1.00;;;18.20;99.90;;;;;;5030625;28;20276;-54
2023/09/22 08:12:14;;;;;;;3.58;0.75;;;18.20;99.90;;;;;;5030627;28;20237;-55
2023/09/22 08:14:41;;;;;;;2.53;1.50;;;18.20;99.90;;;;;;5030316;28;20230;-54
2023/09/22 08:17:09;;;;;;;2.05;1.05;;;18.20;99.90;;;;;;5030428;28;20234;-55
2023/09/22 08:19:36;;;;;;;1.33;0.90;;;18.20;99.90;;;;;;5033168;28;20676;-55
2023/09/22 08:22:03;;;;;;;2.83;0.90;;;18.10;99.90;;;;;;5034182;28;20209;-55
2023/09/22 08:24:30;;;;;;;1.67;0.80;;;18.00;99.90;;;;;;5034271;28;20202;-54
2023/09/22 08:26:59;;;;;;;0.90;0.80;;;18.00;99.90;;;;;;5034376;28;20309;-55
2023/09/22 08:29:25;;;;;;;1.60;1.30;;;18.00;99.90;;;;;;5034154;28;20252;-54
2023/09/22 08:31:54;;;;;;;1.77;1.02;;;18.00;99.90;;;;;;5033931;28;20205;-56
2023/09/22 08:34:22;;;;;;;2.33;1.50;;;18.20;99.90;;;;;;5033886;28;20225;-56
2023/09/22 08:36:48;;;;;;;1.33;0.95;;;18.30;99.90;;;;;;5034030;28;20209;-55
2023/09/22 08:39:16;;;;;;;2.50;1.15;;;18.50;99.90;;;;;;5033742;28;20206;-55
2023/09/22 08:41:45;;;;;;;1.98;0.93;;;18.60;99.90;;;;;;5033820;28;20664;-55
2023/09/22 08:44:12;;;;;;;2.58;1.17;;;18.80;99.90;;;;;;5033501;28;20765;-61
2023/09/22 08:46:40;;;;;;;1.70;0.88;;;18.90;99.90;;;;;;5034019;28;20260;-57
2023/09/22 08:49:08;;;;;;;1.67;0.90;;;19.20;99.90;;;;;;5033844;28;20269;-56
2023/09/22 08:51:36;;;;;;;1.20;0.88;;;19.40;99.90;;;;;;5033793;28;20206;-54
2023/09/22 08:54:03;;;;;;;1.42;0.70;;;19.60;99.90;;;;;;5033126;28;20260;-54
2023/09/22 08:56:31;;;;;;;2.35;0.90;;;19.80;99.90;;;;;;5033675;28;20202;-53
2023/09/22 08:58:58;;;;;;;2.58;0.70;;;19.80;99.90;;;;;;5033496;28;20242;-53
2023/09/22 09:01:24;;;;;;;2.33;0.82;;;20.00;99.90;;;;;;5033421;28;20210;-53
2023/09/22 09:03:51;;;;;;;2.03;0.68;;;20.00;99.90;;;;;;5033493;28;20245;-53
2023/09/22 09:06:20;;;;;;;0.75;0.73;;;20.30;99.90;;;;;;5032988;28;20290;-52
2023/09/22 09:09:09;;;;;;;2.83;1.00;;;20.60;99.90;;;;;;5033596;28;20281;-52
2023/09/22 09:11:36;;;;;;;1.27;0.90;;;20.90;99.90;;;;;;5026262;28;20238;-53
2023/09/22 09:14:21;;;;;;;1.55;0.73;;;21.10;99.90;;;;;;5032954;28;20309;-53
2023/09/22 09:16:48;;;;;;;3.60;0.98;;;21.40;99.90;;;;;;5027768;28;20213;-53
2023/09/22 09:19:15;;;;;;;1.05;0.80;;;21.60;99.90;;;;;;5033228;28;20680;-53
2023/09/22 09:22:04;;;;;;;1.45;0.70;;;21.50;99.90;;;;;;5033860;28;20668;-54
2023/09/22 09:24:33;;;;;;;0.95;0.73;;;21.50;99.90;;;;;;5027050;28;20199;-55
2023/09/22 09:27:00;;;;;;;1.30;0.80;;;21.40;99.90;;;;;;5035968;28;20225;-53
2023/09/22 09:29:30;;;;;;;1.75;0.80;;;21.20;99.90;;;;;;5034657;28;20206;-53
2023/09/22 09:32:00;;;;;;;3.35;0.90;;;21.20;99.90;;;;;;5033368;28;20208;-55
2023/09/22 09:34:39;;;;;;;1.52;0.90;;;21.10;99.90;;;;;;5032537;28;20529;-53
2023/09/22 09:37:12;;;;;;;2.90;0.88;;;20.90;99.90;;;;;;5032908;28;20227;-54
2023/09/22 09:39:52;;;;;;;1.73;1.00;;;21.00;99.90;;;;;;5032974;28;20202;-52
2023/09/22 09:42:21;;;;;;;1.65;0.88;;;21.20;99.90;;;;;;5032582;28;20234;-53
2023/09/22 09:44:50;;;;;;;2.05;1.05;;;21.40;99.90;;;;;;5032540;28;20236;-54
2023/09/22 09:47:22;;;;;;;1.58;0.90;;;21.30;99.90;;;;;;5032562;28;20293;-53
2023/09/22 09:49:53;;;;;;;1.30;0.93;;;21.30;99.90;;;;;;5032731;28;20679;-53
2023/09/22 09:52:24;;;;;;;1.38;1.00;;;21.20;99.90;;;;;;5032071;28;20234;-54
2023/09/22 09:55:03;;;;;;;1.95;0.90;;;21.30;99.90;;;;;;5032228;28;20253;-52
2023/09/22 09:57:31;;;;;;;1.95;0.57;;;21.40;99.90;;;;;;5024346;28;20201;-54
2023/09/22 09:59:58;;;;;;;3.42;1.25;;;21.50;99.90;;;;;;5032481;28;20696;-52
2023/09/22 10:02:27;;;;;;;1.92;0.90;;;21.60;99.90;;;;;;5032467;28;20233;-53
2023/09/22 10:04:55;;;;;;;2.05;0.63;;;21.50;99.90;;;;;;5032568;28;20202;-55
2023/09/22 10:07:22;;;;;;;1.67;1.15;;;21.50;99.90;;;;;;5032334;28;20210;-53
2023/09/22 10:09:49;;;;;;;1.42;0.85;;;21.30;99.90;;;;;;5032720;28;20209;-53
2023/09/22 10:12:17;;;;;;;2.47;0.80;;;21.30;99.90;;;;;;5032045;28;20720;-54
2023/09/22 10:14:46;;;;;;;0.77;0.57;;;21.20;99.90;;;;;;5031741;28;20222;-54
2023/09/22 10:17:21;;;;;;;1.77;0.80;;;21.20;99.90;;;;;;5032029;28;20300;-55
2023/09/22 10:19:48;;;;;;;1.55;0.93;;;21.50;99.90;;;;;;5031966;28;20302;-52
2023/09/22 10:22:15;;;;;;;2.92;0.90;;;21.90;99.90;;;;;;5031715;28;20647;-53
2023/09/22 10:24:42;;;;;;;2.42;1.05;;;22.00;99.90;;;;;;5031923;28;20209;-53
2023/09/22 10:27:14;;;;;;;1.42;0.90;;;22.30;99.90;;;;;;5032228;28;20638;-53
2023/09/22 10:29:52;;;;;;;8.73;1.20;;;22.50;99.90;;;;;;5032079;28;20206;-53
2023/09/22 10:32:21;;;;;;;1.75;1.10;;;22.70;99.90;;;;;;5031856;28;20265;-53
2023/09/22 10:34:49;;;;;;;1.13;0.70;;;22.70;99.90;;;;;;5031491;28;20234;-56
2023/09/22 10:37:16;;;;;;;0.93;0.68;;;22.80;99.90;;;;;;5031929;28;20206;-56
2023/09/22 10:39:53;;;;;;;1.08;0.75;;;23.00;99.90;;;;;;5031739;28;20202;-54
2023/09/22 10:42:21;;;;;;;2.63;0.60;;;23.10;99.90;;;;;;5031184;28;20225;-55
2023/09/22 10:45:03;;;;;;;3.42;0.82;;;23.30;99.90;;;;;;5031493;28;20210;-56
2023/09/22 10:47:38;;;;;;;1.92;0.93;;;23.40;99.90;;;;;;5031570;28;20202;-54
2023/09/22 10:50:14;;;;;;;4.75;0.70;;;23.50;99.90;;;;;;5031718;28;20232;-55
2023/09/22 10:52:49;;;;;;;4.30;1.10;;;23.50;99.90;;;;;;5024456;28;20232;-56
2023/09/22 10:55:24;;;;;;;1.90;1.00;;;23.60;99.90;;;;;;5031086;28;20221;-54
2023/09/22 10:57:51;;;;;;;1.25;0.80;;;23.80;99.90;;;;;;5031402;28;20659;-56
2023/09/22 11:00:19;;;;;;;2.22;1.13;;;23.80;99.90;;;;;;5031771;28;20264;-56
2023/09/22 11:02:46;;;;;;;3.78;0.95;;;23.70;99.90;;;;;;5031723;28;20249;-58
2023/09/22 11:05:13;;;;;;;1.58;0.90;;;23.50;99.90;;;;;;5031573;28;20229;-57
2023/09/22 11:07:41;;;;;;;2.42;0.98;;;23.30;99.90;;;;;;5032749;28;20226;-57
2023/09/22 11:10:10;;;;;;;3.03;0.93;;;23.10;99.90;;;;;;5032440;28;20234;-57
2023/09/22 11:12:36;;;;;;;25.00;21.75;;;23.00;99.90;;;;;;5031181;28;20229;-56
2023/09/22 11:15:04;;;;;;;4.15;1.98;;;22.70;99.90;;;;;;5030798;28;20221;-59
2023/09/22 11:17:46;;;;;;;2.13;1.27;;;22.60;99.90;;;;;;5030627;28;20202;-56
2023/09/22 11:20:18;;;;;;;2.67;1.20;;;22.50;99.90;;;;;;5030603;28;20706;-57
2023/09/22 11:22:45;;;;;;;1.75;0.90;;;22.50;99.90;;;;;;5030967;28;20722;-56
2023/09/22 11:25:12;;;;;;;2.15;0.80;;;22.40;99.90;;;;;;5030894;28;20202;-55
2023/09/22 11:27:45;;;;;;;7.65;0.80;;;22.30;99.90;;;;;;5031720;28;20230;-57
2023/09/22 11:30:14;;;;;;;2.75;0.60;;;22.40;99.90;;;;;;5031120;28;20289;-57
2023/09/22 11:32:44;;;;;;;0.63;0.50;;;22.50;99.90;;;;;;5031056;28;20226;-56
2023/09/22 11:35:11;;;;;;;1.83;0.60;;;22.80;99.90;;;;;;5030676;28;20219;-57
2023/09/22 11:37:39;;;;;;;1.80;0.63;;;23.10;99.90;;;;;;5031272;28;20259;-55
2023/09/22 11:40:16;;;;;;;2.10;0.80;;;23.20;99.90;;;;;;5031091;28;20264;-56
2023/09/22 11:42:49;;;;;;;1.63;0.63;;;23.20;99.90;;;;;;5024185;28;20244;-57
2023/09/22 11:45:23;;;;;;;1.33;0.70;;;23.20;99.90;;;;;;5030274;28;20206;-55
2023/09/22 11:48:04;;;;;;;7.32;0.73;;;23.20;99.90;;;;;;5030941;28;20210;-56
2023/09/22 11:50:31;;;;;;;1.17;0.60;;;23.40;99.90;;;;;;5030892;28;20259;-56
2023/09/22 11:53:18;;;;;;;3.53;0.85;;;23.50;99.90;;;;;;5031161;28;20230;-55
2023/09/22 11:55:46;;;;;;;4.07;0.90;;;23.80;99.90;;;;;;5028097;28;20260;-55
2023/09/22 11:58:14;;;;;;;0.85;0.52;;;24.10;99.90;;;;;;5035139;28;20214;-55
2023/09/22 12:00:40;;;;;;;4.78;3.70;;;24.30;99.90;;;;;;5035127;28;20290;-55
2023/09/22 12:03:09;;;;;;;1.00;0.40;;;24.30;99.90;;;;;;5034826;28;20222;-55
2023/09/22 12:05:36;;;;;;;0.70;0.50;;;24.10;99.90;;;;;;5026699;28;20202;-55
2023/09/22 12:08:04;;;;;;;1.60;0.90;;;24.20;99.90;;;;;;5034742;28;20755;-55
2023/09/22 12:10:31;;;;;;;4.97;0.75;;;24.10;99.90;;;;;;5034526;28;20202;-55
2023/09/22 12:12:58;;;;;;;1.02;0.55;;;23.90;99.90;;;;;;5035063;28;20260;-56
2023/09/22 12:15:24;;;;;;;0.88;0.47;;;23.60;99.90;;;;;;5034044;28;20699;-57
2023/09/22 12:17:51;;;;;;;1.13;0.60;;;23.70;99.90;;;;;;5035357;28;20240;-57
2023/09/22 12:20:19;;;;;;;1.23;0.60;;;23.90;99.90;;;;;;5034793;28;20293;-55
2023/09/22 12:22:46;;;;;;;1.48;0.47;;;23.90;99.90;;;;;;5034597;28;20256;-57
2023/09/22 12:25:13;;;;;;;1.38;0.60;;;23.80;99.90;;;;;;5034291;28;20218;-60
2023/09/22 12:27:40;;;;;;;2.03;0.80;;;23.70;99.90;;;;;;5034827;28;20198;-57
2023/09/22 12:30:08;;;;;;;3.20;0.80;;;23.80;99.90;;;;;;5034518;28;20703;-58
2023/09/22 12:32:35;;;;;;;1.80;0.80;;;23.80;99.90;;;;;;5026162;28;20226;-56
2023/09/22 12:35:02;;;;;;;1.00;0.60;;;23.70;99.90;;;;;;5034051;28;20289;-56
2023/09/22 12:37:31;;;;;;;2.90;0.60;;;23.60;99.90;;;;;;5034002;28;20226;-57
2023/09/22 12:39:59;;;;;;;1.70;0.90;;;23.70;99.90;;;;;;5033830;28;20210;-56
2023/09/22 12:42:25;;;;;;;2.20;0.80;;;23.80;99.90;;;;;;5034226;28;20231;-56
2023/09/22 12:44:52;;;;;;;1.25;0.55;;;23.90;99.90;;;;;;5034081;28;20668;-55
2023/09/22 12:47:19;;;;;;;2.75;0.85;;;24.00;99.90;;;;;;5033916;28;20225;-57
2023/09/22 12:49:46;;;;;;;4.30;0.60;;;24.10;99.90;;;;;;5034222;28;20198;-57
2023/09/22 12:52:12;;;;;;;14.05;11.10;;;24.30;99.90;;;;;;5033857;28;20225;-57